Flight Track Log - Related Links

Times and Time Zones

All times are in EDT time to prevent confusion due to time zone crossing. See the UAL4380 flight status page for this flight to view local times or setup timezone preferences in your user account.

Time Position Orientation Groundspeed Altitude Reporting Facility
EDT Latitude Longitude Course Direction KTS MPH feet Rate Location/Type
Wed 08:38:27 AM 40.6500 -74.1833 312° West 173 199 1,500  Level New York TRACON
Wed 08:40:41 AM 40.7158 -74.2783 312° West 251 289 5,800 2,250 Climbing New York Center
Wed 08:41:39 AM 40.7878 -74.3122 340° North 265 305 8,700 2,400 Climbing New York Center
Wed 08:42:41 AM 40.8644 -74.3272 352° North 272 313 10,600 1,328 Climbing New York Center
Wed 08:43:41 AM 40.9581 -74.3319 358° North 311 358 11,400 1,068 Climbing New York Center
Wed 08:44:39 AM 41.0472 -74.3394 356° North 349 402 12,700 1,525 Climbing New York Center
Wed 08:45:39 AM 41.1483 -74.3750 345° North 359 413 14,400 1,388 Climbing New York Center
Wed 08:46:40 AM 41.2036 -74.4664 309° West 337 388 15,500 1,190 Climbing New York Center
Wed 08:47:40 AM 41.2644 -74.5883 304° West 357 411 16,800 1,140 Climbing New York Center
Wed 08:48:41 AM 41.3211 -74.6992 304° West 367 422 17,800 1,041 Climbing New York Center
Wed 08:49:41 AM 41.3817 -74.8189 304° West 380 437 18,900 1,250 Climbing New York Center
Wed 08:50:41 AM 41.4381 -74.9331 303° West 380 437 20,300 1,361 Climbing New York Center
Wed 08:51:40 AM 41.4944 -75.0472 303° West 380 437 21,600 1,250 Climbing New York Center
Wed 08:52:41 AM 41.5508 -75.1589 304° West 380 437 22,800 1,140 Climbing New York Center
Wed 08:53:41 AM 41.6069 -75.2736 303° West 380 437 23,900 1,119 Climbing New York Center
Wed 08:54:39 AM 41.6647 -75.3969 302° West 380 437 25,000 1,109 Climbing New York Center
Wed 08:55:40 AM 41.7161 -75.5144 300° West 380 437 26,100 1,100 Climbing New York Center
Wed 08:56:39 AM 41.7528 -75.6422 291° West 368 423 27,200 1,109 Climbing New York Center
Wed 08:57:39 AM 41.7892 -75.7672 291° West 362 417 28,300 1,091 Climbing New York Center
Wed 08:58:40 AM 41.8272 -75.8953 292° West 362 417 29,400 1,091 Climbing New York Center
Wed 08:59:40 AM 41.8636 -76.0206 291° West 362 417 30,500 1,091 Climbing New York Center
Wed 09:00:41 AM 41.8975 -76.1458 290° West 362 417 31,600 1,109 Climbing New York Center
Wed 09:01:39 AM 41.9356 -76.2717 292° West 362 417 32,700 1,160 Climbing New York Center
Wed 09:02:40 AM 41.9692 -76.3944 290° West 357 411 33,900 985 Climbing New York Center
Wed 09:05:00 AM 42.0456 -76.6711 290° West 343 395 36,000 630 Climbing Cleveland Center
Wed 09:06:00 AM 42.0789 -76.7922 290° West 343 395 36,000  Level Cleveland Center
Wed 09:06:59 AM 42.1144 -76.9217 290° West 348 400 36,000  Level Cleveland Center
Wed 09:08:00 AM 42.1542 -77.0594 291° West 374 430 36,000  Level Cleveland Center
Wed 09:09:00 AM 42.1919 -77.2058 289° West 396 456 36,000  Level Cleveland Center
Wed 09:09:59 AM 42.2336 -77.3525 291° West 413 475 36,000  Level Cleveland Center
Wed 09:11:00 AM 42.2731 -77.5019 290° West 418 481 36,000  Level Cleveland Center
Wed 09:12:00 AM 42.3122 -77.6461 290° West 418 481 36,000  Level Cleveland Center
Wed 09:13:00 AM 42.3494 -77.7933 289° West 418 481 36,000  Level Cleveland Center
Wed 09:14:00 AM 42.3903 -77.9378 291° West 418 481 36,000  Level Cleveland Center
Wed 09:15:00 AM 42.4314 -78.0964 289° West 418 481 36,000  Level Cleveland Center
Wed 09:15:59 AM 42.4697 -78.2383 290° West 413 475 36,000  Level Cleveland Center
Wed 09:17:00 AM 42.5081 -78.3864 289° West 413 475 36,000  Level Cleveland Center
Wed 09:18:00 AM 42.5461 -78.5314 290° West 413 475 36,000  Level Cleveland Center
Wed 09:18:59 AM 42.5842 -78.6797 289° West 413 475 36,000  Level Cleveland Center
Wed 09:20:00 AM 42.6219 -78.8197 290° West 413 475 36,000  Level Cleveland Center
Wed 09:20:59 AM 42.6572 -78.9628 289° West 408 470 36,000  Level Cleveland Center
Wed 09:22:00 AM 42.6947 -79.1058 290° West 403 464 36,000  Level Cleveland Center
Wed 09:23:00 AM 42.7319 -79.2519 289° West 403 464 36,000  Level Cleveland Center
Wed 09:23:59 AM 42.7667 -79.3953 288° West 403 464 36,000  Level Cleveland Center
Wed 09:24:59 AM 42.8014 -79.5392 288° West 403 464 36,000  Level Cleveland Center
Wed 09:25:59 AM 42.8381 -79.6828 289° West 403 464 36,000  Level Cleveland Center
Wed 09:26:59 AM 42.8767 -79.8239 291° West 403 464 36,000  Level Cleveland Center
Wed 09:28:00 AM 42.9108 -79.9653 288° West 403 464 36,000  Level Cleveland Center
Wed 09:29:19 AM 42.9333 -80.1333 280° West 390 449 36,000  Level Toronto Center
Wed 09:30:19 AM 42.9833 -80.2667 297° West 390 449 36,000 -50 Level Toronto Center
Wed 09:31:19 AM 43.0167 -80.4000 289° West 390 449 35,900  Descending Toronto Center
Wed 09:32:20 AM 43.0500 -80.5667 285° West 390 449 36,000  Climbing Toronto Center
Wed 09:33:20 AM 43.0833 -80.7000 289° West 390 449 35,900  Descending Toronto Center
Wed 09:34:19 AM 43.1000 -80.8500 279° West 390 449 36,000 50 Climbing Toronto Center
Wed 09:35:19 AM 43.1333 -80.9833 289° West 390 449 36,000  Level Toronto Center
Wed 09:36:19 AM 43.1667 -81.1167 289° West 400 460 36,000 -50 Level Toronto Center
Wed 09:37:19 AM 43.2000 -81.2833 285° West 390 449 35,900  Descending Toronto Center
Wed 09:38:20 AM 43.2333 -81.4167 289° West 390 449 36,000  Climbing Toronto Center
Wed 09:39:19 AM 43.2667 -81.5500 289° West 390 449 35,900 -50 Descending Toronto Center
Wed 09:40:19 AM 43.3000 -81.7000 287° West 390 449 35,900 50 Level Toronto Center
Wed 09:41:20 AM 43.3333 -81.8333 289° West 390 449 36,000 50 Climbing Toronto Center
Wed 09:42:20 AM 43.3500 -81.9667 280° West 390 449 36,000  Level Toronto Center
Wed 09:43:19 AM 43.3833 -82.1333 285° West 390 449 36,000  Level Toronto Center
Wed 09:44:19 AM 43.4333 -82.2667 297° West 400 460 36,000 -54 Level Toronto Center
Wed 09:45:11 AM 43.4669 -82.4108 288° West 395 455 35,900 -54 Descending Cleveland Center
Wed 09:46:11 AM 43.4978 -82.5550 286° West 400 460 35,900  Level Cleveland Center
Wed 09:47:11 AM 43.5267 -82.6961 286° West 400 460 35,900 38 Level Cleveland Center
Wed 09:48:47 AM 43.5703 -82.9006 286° West 385 443 36,000 47 Climbing Minneapolis Center
Wed 09:49:19 AM 43.5833 -83.0000 280° West 380 437 36,000  Level Toronto Center
Wed 09:50:19 AM 43.6167 -83.1333 289° West 380 437 36,000  Level Toronto Center
Wed 09:50:51 AM 43.6339 -83.2075 288° West 378 435 36,000 -64 Level Minneapolis Center
Wed 09:51:53 AM 43.6644 -83.3456 287° West 377 434 35,900  Descending Minneapolis Center
Wed 09:52:54 AM 43.6922 -83.4831 286° West 375 432 36,000 49 Climbing Minneapolis Center
Wed 09:53:56 AM 43.7200 -83.6197 286° West 372 428 36,000 -48 Level Minneapolis Center
Wed 09:54:58 AM 43.7494 -83.7561 287° West 371 427 35,900  Descending Minneapolis Center
Wed 09:56:00 AM 43.7767 -83.8928 285° West 371 427 36,000 48 Climbing Minneapolis Center
Wed 09:57:02 AM 43.8092 -84.0586 285° West 373 429 36,000  Level Minneapolis Center
Wed 09:58:04 AM 43.8375 -84.1994 286° West 378 435 36,000  Level Minneapolis Center
Wed 09:59:05 AM 43.8658 -84.3408 286° West 382 440 36,000  Level Minneapolis Center
Wed 10:00:08 AM 43.8950 -84.4856 286° West 388 447 36,000  Level Minneapolis Center
Wed 10:01:10 AM 43.9231 -84.6306 285° West 390 449 36,000  Level Minneapolis Center
Wed 10:02:11 AM 43.9517 -84.7731 286° West 387 445 36,000 -49 Level Minneapolis Center
Wed 10:03:13 AM 43.9831 -84.9408 285° West 379 436 35,900  Descending Minneapolis Center
Wed 10:04:15 AM 44.0106 -85.0819 285° West 379 436 36,000 48 Climbing Minneapolis Center
Wed 10:05:17 AM 44.0375 -85.2233 285° West 380 437 36,000 -48 Level Minneapolis Center
Wed 10:06:19 AM 44.0642 -85.3639 285° West 380 437 35,900 -49 Descending Minneapolis Center
Wed 10:07:20 AM 44.0864 -85.4772 285° West 380 437 35,900  Level Minneapolis Center
Wed 10:08:22 AM 44.1122 -85.6203 284° West 381 438 35,900  Level Minneapolis Center
Wed 10:09:25 AM 44.1483 -85.8231 284° West 383 441 35,900  Level Minneapolis Center
Wed 10:10:27 AM 44.1750 -85.9669 285° West 383 441 35,900  Level Minneapolis Center
Wed 10:11:29 AM 44.2017 -86.1094 285° West 380 437 35,900  Level Minneapolis Center
Wed 10:12:31 AM 44.2258 -86.2514 283° West 377 434 35,900  Level Minneapolis Center
Wed 10:13:33 AM 44.2522 -86.3933 285° West 378 435 35,900  Level Minneapolis Center
Wed 10:14:35 AM 44.2772 -86.5375 284° West 380 437 35,900  Level Minneapolis Center
Wed 10:15:37 AM 44.3022 -86.6800 284° West 379 436 35,900  Level Minneapolis Center
Wed 10:16:39 AM 44.3325 -86.8522 284° West 380 437 35,900  Level Minneapolis Center
Wed 10:17:41 AM 44.3572 -86.9956 284° West 379 436 35,900  Level Minneapolis Center
Wed 10:18:43 AM 44.3811 -87.1381 283° West 378 435 35,900 49 Level Minneapolis Center
Wed 10:19:44 AM 44.4017 -87.2569 284° West 382 440 36,000 48 Climbing Minneapolis Center
Wed 10:20:47 AM 44.4339 -87.4475 283° West 379 436 36,000  Level Minneapolis Center
Wed 10:21:49 AM 44.4578 -87.5911 283° West 379 436 36,000 -48 Level Minneapolis Center
Wed 10:22:51 AM 44.4822 -87.7439 283° West 382 440 35,900 -48 Descending Minneapolis Center
Wed 10:23:53 AM 44.5069 -87.8894 283° West 384 442 35,900 48 Level Minneapolis Center
Wed 10:24:55 AM 44.5283 -88.0253 283° West 380 437 36,000  Climbing Minneapolis Center
Wed 10:26:09 AM 44.5589 -88.2200 282° West 382 440 35,900  Descending Minneapolis Center
Wed 10:27:11 AM 44.5761 -88.3639 280° West 378 435 36,000 48 Climbing Minneapolis Center
Wed 10:28:13 AM 44.5922 -88.5089 279° West 377 434 36,000  Level Minneapolis Center
Wed 10:29:15 AM 44.6094 -88.6517 280° West 373 429 36,000  Level Minneapolis Center
Wed 10:30:18 AM 44.6275 -88.8206 279° West 375 432 36,000 -432 Level Minneapolis Center
Wed 10:31:20 AM 44.6447 -88.9672 279° West 380 437 35,100 -919 Descending Minneapolis Center
Wed 10:32:22 AM 44.6603 -89.1108 279° West 375 432 34,100 -968 Descending Minneapolis Center
Wed 10:33:24 AM 44.6761 -89.2503 279° West 365 420 33,100 -968 Descending Minneapolis Center
Wed 10:34:26 AM 44.6917 -89.3958 279° West 374 430 32,100 -537 Descending Minneapolis Center
Wed 10:35:27 AM 44.7050 -89.5233 278° West 390 449 32,000 -48 Descending Minneapolis Center
Wed 10:36:30 AM 44.7264 -89.7236 279° West 391 450 32,000  Level Minneapolis Center
Wed 10:37:32 AM 44.7417 -89.8744 278° West 391 450 32,000  Level Minneapolis Center
Wed 10:38:34 AM 44.7578 -90.0222 279° West 387 445 32,000  Level Minneapolis Center
Wed 10:39:36 AM 44.7731 -90.1733 278° West 388 447 32,000  Level Minneapolis Center
Wed 10:40:38 AM 44.7883 -90.3233 278° West 388 447 32,000  Level Minneapolis Center
Wed 10:41:40 AM 44.8061 -90.5025 278° West 395 455 32,000  Level Minneapolis Center
Wed 10:42:42 AM 44.8197 -90.6467 278° West 397 457 32,000 -290 Level Minneapolis Center
Wed 10:43:44 AM 44.8350 -90.7994 278° West 394 453 31,400 -1,306 Descending Minneapolis Center
Wed 10:44:46 AM 44.8503 -90.9531 278° West 395 455 29,300 -2,226 Descending Minneapolis Center
Wed 10:45:48 AM 44.8764 -91.1364 281° West 397 457 26,800 -2,226 Descending Minneapolis Center
Wed 10:46:50 AM 44.9006 -91.2944 282° West 405 466 24,700 -2,177 Descending Minneapolis Center
Wed 10:47:52 AM 44.9247 -91.4517 282° West 409 471 22,300 -2,256 Descending Minneapolis Center
Wed 10:48:55 AM 44.9478 -91.6011 282° West 398 458 20,000 -2,256 Descending Minneapolis Center
Wed 10:49:57 AM 44.9697 -91.7481 282° West 373 429 17,600 -2,419 Descending Minneapolis Center
Wed 10:50:59 AM 44.9889 -91.8789 282° West 350 403 15,000 -2,613 Descending Minneapolis Center
Wed 10:52:01 AM 45.0108 -92.0236 282° West 340 391 12,200 -1,935 Descending Minneapolis Center
Wed 10:53:03 AM 45.0317 -92.1628 282° West 338 389 11,000 -581 Descending Minneapolis Center
Wed 10:54:05 AM 45.0483 -92.2889 281° West 331 381 11,000  Level Minneapolis Center
Wed 10:55:19 AM 45.0289 -92.4206 258° West 341 392 11,000 -574 Level Minneapolis Center
Wed 10:56:21 AM 44.9525 -92.5383 228° Southwest 307 353 9,700 -1,597 Descending Minneapolis Center
Wed 10:57:23 AM 44.8939 -92.6144 223° Southwest 290 334 7,700 -1,306 Descending Minneapolis Center
Wed 10:58:25 AM 44.8286 -92.6750 213° Southwest 283 326 7,000 -871 Descending Minneapolis Center
Wed 10:59:27 AM 44.7681 -92.7333 214° Southwest 253 291 5,900 -864 Descending Minneapolis Center
Wed 11:00:30 AM 44.7214 -92.7886 220° Southwest 223 257 5,200 -768 Descending Minneapolis Center
Wed 11:01:32 AM 44.7353 -92.8589 286° West 180 207 4,300 -581 Descending Minneapolis Center
Wed 11:02:34 AM 44.7597 -92.9150 302° West 169 194 4,000 -145 Descending Minneapolis Center
Wed 11:03:36 AM 44.7864 -92.9756 302° West 169 194 4,000  Level Minneapolis Center

Login

Don't have an account? Register now (free) for customized features, flight alerts, and more!